createdAt,value
2019-03-21T05:39:01.310Z,12.40
2019-03-21T05:44:21.693Z,12.40
2019-03-21T05:46:52.113Z,12.40
2019-03-21T05:49:22.195Z,12.30
2019-03-21T05:51:52.366Z,12.30
2019-03-21T05:54:22.490Z,12.30
2019-03-21T05:56:53.794Z,12.30
2019-03-21T05:59:23.939Z,12.30
2019-03-21T06:01:54.412Z,12.30
2019-03-21T06:04:24.937Z,12.30
2019-03-21T06:07:15.653Z,12.20
2019-03-21T06:09:45.705Z,11.10
2019-03-21T06:12:16.868Z,10.40
2019-03-21T06:14:53.170Z,9.70
2019-03-21T06:17:23.707Z,9.60
2019-03-21T06:19:57.066Z,9.60
2019-03-21T06:22:32.904Z,9.60
2019-03-21T06:25:15.590Z,9.60
2019-03-21T06:27:43.693Z,9.40
2019-03-21T06:30:13.764Z,9.40
2019-03-21T06:32:44.184Z,9.50
2019-03-21T06:35:21.371Z,9.50
2019-03-21T06:37:51.784Z,9.40
2019-03-21T06:40:21.990Z,9.60
2019-03-21T06:42:52.126Z,9.60
2019-03-21T06:45:22.244Z,9.70
2019-03-21T06:47:53.257Z,9.80
2019-03-21T06:50:23.551Z,9.90
2019-03-21T06:52:53.916Z,10.00
2019-03-21T06:55:23.981Z,10.00
2019-03-21T06:57:54.386Z,10.10
2019-03-21T07:00:25.141Z,10.20
2019-03-21T07:02:55.363Z,10.20
2019-03-21T07:05:26.902Z,10.40
2019-03-21T07:07:57.178Z,10.60
2019-03-21T07:10:27.648Z,10.80
2019-03-21T07:12:58.042Z,11.00
2019-03-21T07:15:28.183Z,11.80
2019-03-21T07:17:58.730Z,13.50
2019-03-21T07:20:29.054Z,15.50
2019-03-21T07:22:59.196Z,17.90
2019-03-21T07:25:29.212Z,19.50
2019-03-21T07:27:59.622Z,21.10
2019-03-21T07:30:29.698Z,21.20
2019-03-21T07:33:00.166Z,22.00
2019-03-21T07:35:30.237Z,23.50
2019-03-21T07:38:00.381Z,23.50
2019-03-21T07:40:30.465Z,23.00
2019-03-21T07:43:00.944Z,23.70
2019-03-21T07:45:31.252Z,23.90
2019-03-21T07:48:01.694Z,24.10
2019-03-21T07:50:31.904Z,24.50
2019-03-21T07:53:01.978Z,24.70
2019-03-21T07:55:32.567Z,24.80
2019-03-21T07:58:02.569Z,25.90
2019-03-21T08:00:33.115Z,26.00
2019-03-21T08:03:03.186Z,26.20
2019-03-21T08:05:40.147Z,26.40
2019-03-21T08:08:05.186Z,26.90
2019-03-21T08:10:35.646Z,26.60
2019-03-21T08:13:05.789Z,26.80
2019-03-21T08:15:37.829Z,27.20
2019-03-21T08:18:07.548Z,27.20
2019-03-21T08:20:38.072Z,27.40
2019-03-21T08:23:08.136Z,28.00
2019-03-21T08:25:38.602Z,27.90
2019-03-21T08:28:09.251Z,28.00
2019-03-21T08:30:42.312Z,27.80
2019-03-21T08:33:12.765Z,27.80
2019-03-21T08:35:43.193Z,27.80
2019-03-21T08:38:13.709Z,27.90
2019-03-21T08:40:44.141Z,28.30
2019-03-21T08:43:14.134Z,28.70
2019-03-21T08:45:44.588Z,29.60
2019-03-21T08:48:14.790Z,29.50
2019-03-21T08:50:44.870Z,29.60
2019-03-21T08:53:15.241Z,30.10
2019-03-21T08:55:45.304Z,30.30
2019-03-21T08:58:15.290Z,30.60
2019-03-21T09:00:45.713Z,30.30
2019-03-21T09:03:16.137Z,29.90
2019-03-21T09:05:46.209Z,30.90
2019-03-21T09:08:16.285Z,31.20
2019-03-21T09:10:46.414Z,31.60
2019-03-21T09:13:16.479Z,31.00
2019-03-21T09:15:46.532Z,31.70
2019-03-21T09:18:16.522Z,31.30
2019-03-21T09:20:46.648Z,31.00
2019-03-21T09:23:16.713Z,31.10
2019-03-21T09:25:46.800Z,31.70
2019-03-21T09:28:16.871Z,32.40
2019-03-21T09:30:46.879Z,31.60
2019-03-21T09:33:16.877Z,31.30
2019-03-21T09:35:47.289Z,31.10
2019-03-21T09:38:17.427Z,29.70
2019-03-21T09:40:47.854Z,29.70
2019-03-21T09:43:18.013Z,30.80
2019-03-21T09:45:48.095Z,30.60
2019-03-21T09:48:18.151Z,31.20
2019-03-21T09:50:48.296Z,31.20
2019-03-21T09:53:18.282Z,32.10
2019-03-21T09:55:48.710Z,32.10
2019-03-21T09:58:18.837Z,32.40
2019-03-21T10:00:49.039Z,31.80
2019-03-21T10:03:19.106Z,30.60
2019-03-21T10:05:49.292Z,31.40
2019-03-21T10:08:20.258Z,31.40
2019-03-21T10:10:50.332Z,31.70
2019-03-21T10:13:20.522Z,31.30
2019-03-21T10:15:50.732Z,30.70
2019-03-21T10:18:20.795Z,31.60
2019-03-21T10:20:50.932Z,31.90
2019-03-21T10:23:21.065Z,32.50
2019-03-21T10:25:51.528Z,32.70
2019-03-21T10:28:21.884Z,32.30
2019-03-21T10:30:52.188Z,33.40
2019-03-21T10:33:22.505Z,33.10
2019-03-21T10:35:52.522Z,32.80
2019-03-21T10:38:22.522Z,32.80
2019-03-21T10:40:52.668Z,33.10
2019-03-21T10:43:23.067Z,33.90
2019-03-21T10:45:53.241Z,33.50
2019-03-21T10:48:23.733Z,32.30
2019-03-21T10:50:53.852Z,31.60
2019-03-21T10:53:23.913Z,31.20
2019-03-21T10:55:54.395Z,32.10
2019-03-21T10:58:25.966Z,32.90
2019-03-21T11:00:56.367Z,32.90
2019-03-21T11:03:26.502Z,32.90
2019-03-21T11:05:56.570Z,30.60
2019-03-21T11:08:26.638Z,28.90
2019-03-21T11:10:56.709Z,27.50
2019-03-21T11:13:27.269Z,26.20
2019-03-21T11:15:57.325Z,25.40
2019-03-21T11:18:35.698Z,25.00
2019-03-21T11:20:59.078Z,24.20
2019-03-21T11:23:29.214Z,23.50
2019-03-21T11:25:59.709Z,23.10
2019-03-21T11:28:29.917Z,22.70
2019-03-21T11:31:00.065Z,22.30
2019-03-21T11:33:30.189Z,22.00
2019-03-21T11:36:00.673Z,21.60
2019-03-21T11:38:31.133Z,21.40
2019-03-21T11:41:02.340Z,20.80
2019-03-21T11:43:32.899Z,20.60
2019-03-21T11:46:03.452Z,20.70
2019-03-21T11:48:33.771Z,20.60
2019-03-21T11:51:03.920Z,20.70
2019-03-21T11:53:33.960Z,20.70
2019-03-21T11:56:04.039Z,20.60
2019-03-21T11:58:34.042Z,20.60
2019-03-21T12:01:04.186Z,20.40
2019-03-21T12:03:34.317Z,20.20
2019-03-21T12:06:04.538Z,20.10
2019-03-21T12:08:34.664Z,20.10
2019-03-21T12:11:05.048Z,20.10
2019-03-21T12:13:35.099Z,19.90
2019-03-21T12:16:05.250Z,20.00
2019-03-21T12:18:35.380Z,20.10
2019-03-21T12:21:05.524Z,20.30
2019-03-21T12:23:36.046Z,20.30
2019-03-21T12:26:06.580Z,20.30
2019-03-21T12:28:37.001Z,20.20
2019-03-21T12:31:07.028Z,20.10
2019-03-21T12:33:37.161Z,19.70
2019-03-21T12:36:07.288Z,19.60
2019-03-21T12:38:37.708Z,19.70
2019-03-21T12:41:07.712Z,19.70
2019-03-21T12:43:37.842Z,19.90
2019-03-21T12:46:08.978Z,19.90
2019-03-21T12:48:39.117Z,19.80
2019-03-21T12:51:09.540Z,19.60
2019-03-21T12:53:39.619Z,19.70
2019-03-21T12:56:09.613Z,19.80
2019-03-21T12:58:39.689Z,19.80
2019-03-21T13:01:10.199Z,19.70
2019-03-21T13:03:40.342Z,19.60
2019-03-21T13:06:10.473Z,19.80
2019-03-21T13:08:41.069Z,19.80
2019-03-21T13:11:11.495Z,19.70
2019-03-21T13:13:41.928Z,19.50
2019-03-21T13:16:12.058Z,19.40
2019-03-21T13:18:42.569Z,19.20
2019-03-21T13:21:12.633Z,19.30
2019-03-21T13:23:43.010Z,19.30
2019-03-21T13:26:14.290Z,19.30
2019-03-21T13:28:44.487Z,19.20
2019-03-21T13:31:14.627Z,19.10
2019-03-21T13:33:44.689Z,18.90
2019-03-21T13:36:14.758Z,18.80
2019-03-21T13:38:44.823Z,19.00
2019-03-21T13:41:14.961Z,19.20
2019-03-21T13:43:45.026Z,19.30
2019-03-21T13:46:15.522Z,19.30
2019-03-21T13:48:45.521Z,19.40
2019-03-21T13:51:15.592Z,19.30
2019-03-21T13:53:45.719Z,19.30
2019-03-21T13:56:15.821Z,19.30
2019-03-21T13:58:46.724Z,19.20
2019-03-21T14:01:17.103Z,19.30
2019-03-21T14:03:47.589Z,19.30
2019-03-21T14:06:18.032Z,19.30
2019-03-21T14:08:48.101Z,19.30
2019-03-21T14:11:19.434Z,19.20
2019-03-21T14:13:49.648Z,19.20
2019-03-21T14:16:19.775Z,19.20
2019-03-21T14:18:50.074Z,19.00
2019-03-21T14:21:20.427Z,19.00
2019-03-21T14:23:50.502Z,19.10
2019-03-21T14:26:20.813Z,19.00
2019-03-21T14:28:50.811Z,18.90
2019-03-21T14:31:20.941Z,18.90
2019-03-21T14:33:52.407Z,18.80
2019-03-21T14:36:22.399Z,18.80
2019-03-21T14:38:52.537Z,18.90
2019-03-21T14:41:22.679Z,18.90
2019-03-21T14:43:52.837Z,18.80
2019-03-21T14:46:23.219Z,18.80
2019-03-21T14:48:54.358Z,18.80
2019-03-21T14:51:24.411Z,18.70
2019-03-21T14:53:54.771Z,18.70
2019-03-21T14:56:24.851Z,18.60
2019-03-21T14:58:55.358Z,18.80
2019-03-21T15:01:25.413Z,18.80
2019-03-21T15:03:55.553Z,18.80
2019-03-21T15:06:25.921Z,18.80
2019-03-21T15:08:56.058Z,18.90
2019-03-21T15:11:26.207Z,18.90
2019-03-21T15:13:57.404Z,19.00
2019-03-21T15:16:28.841Z,19.10
2019-03-21T15:18:58.909Z,19.10
2019-03-21T15:21:29.396Z,19.20
2019-03-21T15:24:00.047Z,19.10
2019-03-21T15:26:30.254Z,19.10
2019-03-21T15:29:00.389Z,19.10
2019-03-21T15:31:30.584Z,19.00
2019-03-21T15:34:00.650Z,19.10
2019-03-21T15:36:31.260Z,19.10
2019-03-21T15:39:01.401Z,19.10
2019-03-21T15:41:32.934Z,19.00
2019-03-21T15:44:04.016Z,19.00
2019-03-21T15:46:34.009Z,18.90
2019-03-21T15:49:04.386Z,18.70
2019-03-21T15:51:34.518Z,18.70
2019-03-21T15:54:04.649Z,18.70
2019-03-21T15:56:34.791Z,18.70
2019-03-21T15:59:05.204Z,18.80
2019-03-21T16:01:35.603Z,18.80
2019-03-21T16:04:05.816Z,18.90
2019-03-21T16:06:36.179Z,18.80
2019-03-21T16:09:07.418Z,18.90
2019-03-21T16:11:37.489Z,18.90
2019-03-21T16:14:07.498Z,18.90
2019-03-21T16:16:37.965Z,18.90
2019-03-21T16:19:08.089Z,18.90
2019-03-21T16:21:38.227Z,18.80
2019-03-21T16:24:08.296Z,18.70
2019-03-21T16:26:38.284Z,18.70
2019-03-21T16:29:10.199Z,18.70
2019-03-21T16:31:40.130Z,18.50
2019-03-21T16:34:10.203Z,18.50
2019-03-21T16:36:40.266Z,18.50
2019-03-21T16:39:10.416Z,18.40
2019-03-21T16:41:41.757Z,18.40
2019-03-21T16:44:11.826Z,18.30
2019-03-21T16:46:41.910Z,18.20
2019-03-21T16:49:11.917Z,18.10
2019-03-21T16:51:42.052Z,18.00
2019-03-21T16:54:17.448Z,18.00
2019-03-21T16:56:44.680Z,17.90
2019-03-21T16:59:14.822Z,17.90
2019-03-21T17:01:44.829Z,17.80
2019-03-21T17:04:14.964Z,17.70
2019-03-21T17:06:45.382Z,17.60
2019-03-21T17:09:15.688Z,17.60
2019-03-21T17:11:46.122Z,17.50
2019-03-21T17:14:16.257Z,17.40
2019-03-21T17:16:46.341Z,17.20
2019-03-21T17:19:16.786Z,17.10
2019-03-21T17:21:47.219Z,17.00
2019-03-21T17:24:28.766Z,16.90
2019-03-21T17:26:49.280Z,16.90
2019-03-21T17:29:21.531Z,16.60
2019-03-21T17:31:52.581Z,16.50
2019-03-21T17:34:22.666Z,16.20
2019-03-21T17:36:52.654Z,16.10
2019-03-21T17:39:23.012Z,15.90
2019-03-21T17:41:53.093Z,15.70
2019-03-21T17:44:23.093Z,15.70
2019-03-21T17:46:53.166Z,15.60
2019-03-21T17:49:23.750Z,15.50
2019-03-21T17:51:53.965Z,15.50
2019-03-21T17:54:24.131Z,15.40
2019-03-21T17:56:54.269Z,15.10
2019-03-21T17:59:24.274Z,14.90
2019-03-21T18:01:54.783Z,14.70
2019-03-21T18:04:24.934Z,14.70
2019-03-21T18:06:55.084Z,14.70
2019-03-21T18:09:25.423Z,14.50
2019-03-21T18:11:55.565Z,14.40
2019-03-21T18:14:26.172Z,14.30
2019-03-21T18:16:56.212Z,14.20
2019-03-21T18:19:26.341Z,14.10
2019-03-21T18:21:56.839Z,14.10
2019-03-21T18:24:27.366Z,14.10
2019-03-21T18:26:57.906Z,14.00
2019-03-21T18:29:28.138Z,14.00
2019-03-21T18:31:58.553Z,14.00
2019-03-21T18:34:28.634Z,13.80
2019-03-21T18:36:59.102Z,13.80
2019-03-21T18:39:29.258Z,13.80
2019-03-21T18:41:59.400Z,13.80
2019-03-21T18:44:29.869Z,13.80
2019-03-21T18:47:01.013Z,13.90
2019-03-21T18:49:31.197Z,13.90
2019-03-21T18:52:01.661Z,13.80
2019-03-21T18:54:31.868Z,13.70
2019-03-21T18:57:01.960Z,13.60
2019-03-21T18:59:32.521Z,13.50
2019-03-21T19:02:02.545Z,13.40
2019-03-21T19:04:32.974Z,13.40
2019-03-21T19:07:03.246Z,13.20
2019-03-21T19:09:33.530Z,13.20
2019-03-21T19:12:04.054Z,13.30
2019-03-21T19:14:34.117Z,13.30
2019-03-21T19:17:04.262Z,13.40
2019-03-21T19:19:34.333Z,13.50
2019-03-21T19:22:04.475Z,13.50
2019-03-21T19:24:34.956Z,13.60
2019-03-21T19:27:05.101Z,13.50
2019-03-21T19:29:35.169Z,13.40
2019-03-21T19:32:05.288Z,13.30
2019-03-21T19:34:35.280Z,13.10
2019-03-21T19:37:05.660Z,13.00
2019-03-21T19:39:35.733Z,13.00
2019-03-21T19:42:05.892Z,12.90
2019-03-21T19:44:35.964Z,12.90
2019-03-21T19:47:06.156Z,12.80
2019-03-21T19:49:36.447Z,12.70
2019-03-21T19:52:06.588Z,12.80
2019-03-21T19:54:37.142Z,13.50
2019-03-21T19:57:07.629Z,14.00
2019-03-21T19:59:40.642Z,14.50
2019-03-21T20:02:09.994Z,14.90
2019-03-21T20:04:40.556Z,15.30
2019-03-21T20:07:10.849Z,15.60
2019-03-21T20:09:41.311Z,15.80
2019-03-21T20:12:11.379Z,15.90
2019-03-21T20:14:41.514Z,16.00
2019-03-21T20:17:11.729Z,16.20
2019-03-21T20:19:42.189Z,16.20
2019-03-21T20:22:12.827Z,16.30
2019-03-21T20:24:43.029Z,16.30
2019-03-21T20:27:13.190Z,16.40
2019-03-21T20:29:43.394Z,16.40
2019-03-21T20:32:20.387Z,16.40
2019-03-21T20:34:45.226Z,16.40
2019-03-21T20:37:15.692Z,16.40
2019-03-21T20:39:47.966Z,16.40
2019-03-21T20:42:18.218Z,16.40
2019-03-21T20:44:48.263Z,16.40
2019-03-21T20:47:18.337Z,16.30
2019-03-21T20:49:48.846Z,16.30
2019-03-21T20:52:18.922Z,16.30
2019-03-21T20:54:49.354Z,16.30
2019-03-21T20:57:19.713Z,16.30
2019-03-21T20:59:49.862Z,16.30
2019-03-21T21:02:19.940Z,16.20
2019-03-21T21:04:50.377Z,16.20
2019-03-21T21:07:20.513Z,16.20
2019-03-21T21:09:50.652Z,16.20
2019-03-21T21:12:20.731Z,16.20
2019-03-21T21:14:51.065Z,16.10
2019-03-21T21:17:21.194Z,16.10
2019-03-21T21:19:51.625Z,16.10
2019-03-21T21:22:21.613Z,16.10
2019-03-21T21:24:51.688Z,16.00
2019-03-21T21:27:21.899Z,16.00
2019-03-21T21:29:52.496Z,16.00
2019-03-21T21:32:22.707Z,16.00
2019-03-21T21:34:54.743Z,15.90
2019-03-21T21:37:24.916Z,15.90
2019-03-21T21:39:55.074Z,15.90
2019-03-21T21:42:25.458Z,15.90
2019-03-21T21:44:55.818Z,15.90
2019-03-21T21:47:25.872Z,15.80
2019-03-21T21:49:55.945Z,15.80
2019-03-21T21:52:26.382Z,15.80
2019-03-21T21:54:56.408Z,15.80
2019-03-21T21:57:26.891Z,15.80
2019-03-21T21:59:57.322Z,15.80
2019-03-21T22:02:27.395Z,15.70
2019-03-21T22:05:00.153Z,15.70
2019-03-21T22:07:29.617Z,15.70
2019-03-21T22:09:59.686Z,15.60
2019-03-21T22:12:29.756Z,15.60
2019-03-21T22:15:01.204Z,15.60
2019-03-21T22:17:31.344Z,15.60
2019-03-21T22:20:01.483Z,15.60
2019-03-21T22:22:31.869Z,15.50
2019-03-21T22:25:02.308Z,15.50
2019-03-21T22:27:32.370Z,15.50
2019-03-21T22:30:04.354Z,15.50
2019-03-21T22:32:34.506Z,15.40
2019-03-21T22:35:06.230Z,15.40
2019-03-21T22:37:36.367Z,15.40
2019-03-21T22:40:08.816Z,15.30
2019-03-21T22:42:38.948Z,15.30
2019-03-21T22:45:11.308Z,15.30
2019-03-21T22:47:41.442Z,15.30
2019-03-21T22:50:16.664Z,15.30
2019-03-21T22:52:47.137Z,15.20
2019-03-21T22:55:17.276Z,15.20
2019-03-21T22:57:47.433Z,15.20
2019-03-21T23:00:29.887Z,15.20
2019-03-21T23:03:01.485Z,15.20
2019-03-21T23:05:31.856Z,15.10
2019-03-21T23:08:01.929Z,15.10
2019-03-21T23:10:32.136Z,15.10
2019-03-21T23:13:02.628Z,15.10
2019-03-21T23:15:33.158Z,15.10
2019-03-21T23:18:03.482Z,15.10
2019-03-21T23:20:33.556Z,15.10
2019-03-21T23:23:04.035Z,15.00
2019-03-21T23:25:34.175Z,15.00
2019-03-21T23:28:04.481Z,15.00
2019-03-21T23:30:34.611Z,14.90
2019-03-21T23:33:04.854Z,14.90
2019-03-21T23:35:35.450Z,14.80
2019-03-21T23:38:05.633Z,14.90
2019-03-21T23:40:35.754Z,14.80
2019-03-21T23:43:05.900Z,14.80
2019-03-21T23:45:36.333Z,14.80
2019-03-21T23:48:06.869Z,14.70
2019-03-21T23:50:37.296Z,14.70
2019-03-21T23:53:08.355Z,14.70
2019-03-21T23:55:39.890Z,14.70
2019-03-21T23:58:10.427Z,14.70
